Nearby METAR Reports

 

CYFC - Fredericton Airp, New Brunswick
Distance from station: E 14km
Updated: Tue, 22-Sep-2020 4:00am ADT
Clear
Clear
 Wind from calm
Wind: Calm
Temperature: -1°C
Dew Point: -2°C
Humidity: 93%
Barometer: 1026.4 hPa
Clouds: Clear
Visibility: 14 km
2020/09/22 07:00 CYFC 220700Z AUTO 00000KT 9SM CLR M01/M02 A3031 RMK SLP266
CYCX - Gagetown (can M, New Brunswick
Distance from station: E 22km
Updated: Tue, 22-Sep-2020 4:00am ADT
Clear
Clear
 Wind from SW
Wind: SW 4 km/h
Temperature: -2°C
Dew Point: -3°C
Humidity: 93%
Barometer: 1026.4 hPa
Clouds: Clear
Visibility: 14 km
2020/09/22 07:00 CYCX 220700Z AUTO 23002KT 9SM CLR M02/M03 A3031 RMK SLP266
 
CYQM - Moncton Airport, New Brunswick
Distance from station: ENE 159km
Updated: Tue, 22-Sep-2020 4:00am ADT
Overcast
Overcast
 Wind from S
Wind: S 7 km/h
Temperature: 3°C
Wind Chill: 1°C
Dew Point: 2°C
Humidity: 93%
Barometer: 1026.4 hPa
Clouds: Overcast
Visibility: 24 km
Cloud details: Overcast 7925 m
2020/09/22 07:00 CYQM 220700Z 19004KT 15SM OVC260 03/02 A3031 RMK CI8 SLP267
CYSJ - Saint John, New Brunswick
Distance from station: SE 88km
Updated: Tue, 22-Sep-2020 4:00am ADT
Clear
Clear
 Wind from ENE
Wind: ENE 6 km/h
Temperature: 2°C
Dew Point: 1°C
Humidity: 93%
Barometer: 1025.7 hPa
Clouds: Clear
Visibility: 24 km
2020/09/22 07:00 CYSJ 220700Z 06003KT 15SM SKC 02/01 A3029 RMK PRESFR SLP261
 
CWPE - Point Lepreau, New Brunswick
Distance from station: SSE 90km
Updated: Tue, 22-Sep-2020 4:00am ADT

 Wind from N
Wind: N 7 km/h
Temperature: 7°C
Wind Chill: 6°C
Dew Point: 2°C
Humidity: 71%
2020/09/22 07:00 CWPE 220700Z AUTO 01004KT 07/02 RMK AO1 SLP254 T00700019 56026
CYHZ - Halifax Intl Arp, Nova Scotia
Distance from station: ESE 273km
Updated: Tue, 22-Sep-2020 4:00am ADT
Partly cloudy
Partly cloudy
 Wind from NE
Wind: NE 9 km/h
Temperature: 4°C
Wind Chill: 2°C
Dew Point: 4°C
Humidity: 100%
Barometer: 1024.4 hPa
Clouds: Partly cloudy
Visibility: 24 km
Cloud details: Partly cloudy 8534 m
2020/09/22 07:00 CYHZ 220700Z 05005KT 15SM SCT280 04/04 A3025 RMK CI7 SLP249
 
CYZX - Greenwood (can M, Nova Scotia
Distance from station: SE 169km
Updated: Tue, 22-Sep-2020 4:00am ADT
Mostly cloudy
Mostly cloudy
 Wind from calm
Wind: Calm
Temperature: 2°C
Dew Point: 2°C
Humidity: 100%
Barometer: 1025.1 hPa
Clouds: Mostly cloudy
Visibility: 24 km
Cloud details: Mostly cloudy 7620 m
2020/09/22 07:00 CYZX 220700Z 00000KT 15SM BKN250 02/02 A3027 RMK CI6 PRESFR SLP250
CYQI - Yarmouth Airport, Nova Scotia
Distance from station: SSE 230km
Updated: Tue, 22-Sep-2020 4:00am ADT
Clear
Clear
 Wind from NE
Wind: NE 17 km/h, Gust: 30 km/h
Temperature: 7°C
Wind Chill: 4°C
Dew Point: 3°C
Humidity: 76%
Barometer: 1022.4 hPa
Clouds: Clear
Visibility: 24 km
2020/09/22 07:00 CYQI 220700Z 05009G16KT 15SM SKC 07/03 A3019 RMK SLP226
 
KHUL - Houlton, Maine, USA
Distance from station: WNW 90km
Updated: Tue, 22-Sep-2020 4:53am ADT
Clear
Clear
 Wind from calm
Wind: Calm
Temperature: -3°C
Dew Point: -4°C
Humidity: 93%
Barometer: 1025.7 hPa
Clouds: Clear
Visibility: 16 km
2020/09/22 07:53 KHUL 220753Z AUTO 00000KT 10SM CLR M03/M04 A3029 RMK AO2 SLP261 T10281044
KPQI - Presque Isle, Maine, USA
Distance from station: NW 137km
Updated: Tue, 22-Sep-2020 4:56am ADT
Clear
Clear
 Wind from calm
Wind: Calm
Temperature: -3°C
Dew Point: -4°C
Humidity: 93%
Barometer: 1026.4 hPa
Clouds: Clear
Visibility: 16 km
2020/09/22 07:56 KPQI 220756Z AUTO 00000KT 10SM CLR M03/M04 A3031 RMK AO2 SLP294 T10281039
 
KCAR - Caribou, Maine, USA
Distance from station: NW 151km
Updated: Tue, 22-Sep-2020 4:54am ADT
Clear
Clear
 Wind from calm
Wind: Calm
Temperature: 0°C
Dew Point: -3°C
Humidity: 80%
Barometer: 1025.7 hPa
Clouds: Clear
Visibility: 16 km
2020/09/22 07:54 KCAR 220754Z AUTO 00000KT 10SM CLR 00/M03 A3029 RMK AO2 SLP264 T00001033
KMLT - Millinocket, Maine, USA
Distance from station: W 157km
Updated: Tue, 22-Sep-2020 4:53am ADT
Clear
Clear
 Wind from calm
Wind: Calm
Temperature: -1°C
Dew Point: -3°C
Humidity: 86%
Barometer: 1026.4 hPa
Clouds: Clear
Visibility: 16 km
2020/09/22 07:53 KMLT 220753Z AUTO 00000KT 10SM CLR M01/M03 A3031 RMK AO2 SLP273 T10061028
 
KBGR - Bangor, Maine, USA
Distance from station: SW 203km
Updated: Tue, 22-Sep-2020 4:53am ADT
Clear
Clear
 Wind from NW
Wind: NW 9 km/h
Temperature: 0°C
Wind Chill: -3°C
Dew Point: -2°C
Humidity: 87%
Barometer: 1025.4 hPa
Clouds: Clear
Visibility: 16 km
2020/09/22 07:53 KBGR 220753Z 32005KT 10SM CLR 00/M02 A3028 RMK AO2 SLP254 T00001017
KBHB - Bar Harbor, Maine, USA
Distance from station: SW 204km
Updated: Tue, 22-Sep-2020 4:56am ADT
Clear
Clear
 Wind from N
Wind: N 9 km/h
Temperature: 4°C
Wind Chill: 2°C
Dew Point: 2°C
Humidity: 87%
Barometer: 1024.4 hPa
Clouds: Clear
Visibility: 16 km
2020/09/22 07:56 KBHB 220756Z AUTO 35005KT 10SM CLR 04/02 A3025 RMK AO2 SLP245 T00390017
 
CWVU - Brier Island(Aut, Nova Scotia
Distance from station: S 177km
Updated: Tue, 22-Sep-2020 4:00am ADT

 Wind from N
Wind: N 26 km/h
Temperature: 11°C
Dew Point: 8°C
Humidity: 82%
2020/09/22 07:00 CWVU 220700Z AUTO 01014KT 11/08 RMK AO1 PRESFR SLP238 T01080075 58033
CXNP - Nappan (auto), Nova Scotia
Distance from station: E 191km
Updated: Tue, 22-Sep-2020 4:00am ADT

 Wind from SW
Wind: SW 2 km/h
Temperature: 2°C
Dew Point: 1°C
Humidity: 93%
2020/09/22 07:00 CXNP 220700Z AUTO 22001KT 02/01 RMK AO1 SLP262 T00180012 58022
 
CXKT - Kentville (autob, Nova Scotia
Distance from station: ESE 193km
Updated: Tue, 22-Sep-2020 4:00am ADT

 Wind from SE
Wind: SE 2 km/h
Temperature: 4°C
Dew Point: 3°C
Humidity: 93%
2020/09/22 07:00 CXKT 220700Z AUTO 14001KT 04/03 RMK AO1 PRESFR SLP245 T00430032 58033
CWKG - Kejimkujik (au8), Nova Scotia
Distance from station: SE 197km
Updated: Tue, 22-Sep-2020 4:00am ADT

 Wind from ESE
Wind: ESE 7 km/h
Temperature: 5°C
Wind Chill: 3°C
Dew Point: 3°C
Humidity: 87%
2020/09/22 07:00 CWKG 220700Z AUTO 11004KT 05/03 RMK AO1 SLP234 T00510031 58035
 
KFVE - Frenchville, Maine, USA
Distance from station: NW 201km
Updated: Tue, 22-Sep-2020 4:53am ADT
Clear
Clear
 Wind from NNW
Wind: NNW 6 km/h
Temperature: 3°C
Dew Point: 1°C
Humidity: 87%
Barometer: 1025.7 hPa
Clouds: Clear
Visibility: 16 km
2020/09/22 07:53 KFVE 220753Z AUTO 33003KT 10SM CLR 03/01 A3029 RMK AO2 SLP261 T00330006
CZBF - Bathurst Arpt(Aw, New Brunswick
Distance from station: NNE 208km
Updated: Tue, 22-Sep-2020 4:00am ADT
Clear
Clear
 Wind from W
Wind: W 6 km/h
Temperature: 0°C
Dew Point: -1°C
Humidity: 93%
Barometer: 1026.8 hPa
Clouds: Clear
Visibility: 14 km
2020/09/22 07:00 CZBF 220700Z AUTO 27003KT 250V320 9SM CLR 00/M01 A3032 RMK SLP272
 
CERM - Edmunston, New Brunswick
Distance from station: NW 213km
Updated: Tue, 22-Sep-2020 4:00am ADT

 Wind from calm
Wind: Calm
Temperature: -2°C
Dew Point: -2°C
Humidity: 100%
2020/09/22 07:00 CERM 220700Z AUTO 00000KT M02/M02 RMK AO1 SLP275 T10201024 58017
KGNR - Greenville, Maine, USA
Distance from station: W 226km
Updated: Tue, 22-Sep-2020 4:56am ADT

 Wind from NW
Wind: NW 9 km/h
Temperature: 5°C
Wind Chill: 3°C
Dew Point: 3°C
Humidity: 87%
Barometer: 1025.1 hPa
2020/09/22 07:56 KGNR 220756Z AUTO 32005KT 05/03 A3027 RMK AO1 SLP260 T00500033
 
CWSD - Summerside (auto, PEI
Distance from station: ENE 228km
Updated: Tue, 22-Sep-2020 4:00am ADT

 Wind from SE
Wind: SE 11 km/h
Temperature: 8°C
Wind Chill: 6°C
Dew Point: 2°C
Humidity: 66%
2020/09/22 07:00 CWSD 220700Z AUTO 13006KT 08/02 RMK AO1 SLP271 T00790019 56020
K40B - Clayton Lake, Maine, USA
Distance from station: WNW 233km
Updated: Tue, 22-Sep-2020 4:16am ADT

 Wind from calm
Wind: Calm
Temperature: -2°C
Barometer: 1026.8 hPa
2020/09/22 07:16 K40B 220716Z AUTO 00000KT M02/ A3032 RMK AO1 SLP282 T1021 58018
 
CZCR - Charlo Airport, New Brunswick
Distance from station: N 236km
Updated: Tue, 22-Sep-2020 4:00am ADT

 Wind from SW
Wind: SW 7 km/h
Temperature: 2°C
Wind Chill: 0°C
Dew Point: 1°C
Humidity: 93%
2020/09/22 07:00 CZCR 220700Z AUTO 22004KT 02/01 RMK AO1 SLP271 T00210008 58012
CWNE - North Point (aut, Ontario
Distance from station: NE 246km
Updated: Tue, 22-Sep-2020 4:00am ADT

 Wind from SSE
Wind: SSE 7 km/h
Temperature: 11°C
Dew Point: 5°C
Humidity: 67%
2020/09/22 07:00 CWNE 220700Z AUTO 15004KT 11/05 RMK AO1 SLP266 T01070047 56020
 
CXLB - Lunenburg, Nova Scotia
Distance from station: SE 250km
Updated: Tue, 22-Sep-2020 4:00am ADT

 Wind from NNE
Wind: NNE 20 km/h, Gust: 30 km/h
Temperature: 10°C
Wind Chill: 7°C
Dew Point: 7°C
Humidity: 82%
2020/09/22 07:00 CXLB 220700Z AUTO 02011G16KT 10/07 RMK AO1 SLP227 T01030068 58032
CZDB - Debert, Nova Scotia
Distance from station: E 255km
Updated: Tue, 22-Sep-2020 4:00am ADT

 Wind from NE
Wind: NE 13 km/h
Temperature: 4°C
Wind Chill: 1°C
Dew Point: 2°C
Humidity: 87%
2020/09/22 07:00 CZDB 220700Z AUTO 04007KT 04/02 RMK AO1 SLP254 T00430015 58032
 
CWOC - New Carlisle1, Quebec
Distance from station: NNE 262km
Updated: Sun, 20-Sep-2020 8:00pm ADT
NOT Current

 Wind from ENE
Wind: ENE 6 km/h
Temperature: 8°C
Dew Point: 1°C
Humidity: 62%
2020/09/20 23:00 CWOC 202300Z AUTO 07003KT 08/01 RMK AO1 SLP183 T00800014 53004
CWWE - Western Head (ma, Nova Scotia
Distance from station: SE 264km
Updated: Tue, 22-Sep-2020 4:00am ADT

 Wind from N
Wind: N 15 km/h
Temperature: 9°C
Wind Chill: 7°C
Dew Point: 8°C
Humidity: 94%
2020/09/22 07:00 CWWE 220700Z AUTO 36008KT 09/08 RMK AO1 SLP224 T00930075 58035
 
KRKD - Rockland/Knox, Maine, USA
Distance from station: SW 274km
Updated: Tue, 22-Sep-2020 4:56am ADT
Clear
Clear
 Wind from N
Wind: N 6 km/h
Temperature: 6°C
Dew Point: 0°C
Humidity: 66%
Barometer: 1024 hPa
Clouds: Clear
Visibility: 16 km
2020/09/22 07:56 KRKD 220756Z AUTO 36003KT 10SM CLR 06/00 A3024 RMK AO2 SLP241 T00610000
CAHR - Harrington Cda, Ontario
Distance from station: ENE 277km
Updated: Tue, 22-Sep-2020 4:00am ADT

 Wind from NE
Wind: NE 2 km/h
Temperature: 7°C
Dew Point: 3°C
Humidity: 76%
2020/09/22 07:00 CAHR 220700Z AUTO 04001KT 07/03 RMK AO1 SLP267 T00680027 58017
 
KWVL - Waterville, Maine, USA
Distance from station: WSW 277km
Updated: Tue, 22-Sep-2020 4:56am ADT
Clear
Clear
 Wind from N
Wind: N 7 km/h
Temperature: 0°C
Wind Chill: -3°C
Dew Point: -1°C
Humidity: 93%
Barometer: 1024.7 hPa
Clouds: Clear
Visibility: 16 km
2020/09/22 07:56 KWVL 220756Z AUTO 01004KT 10SM CLR 00/M01 A3026 RMK AO2 SLP276 T00001011 FZRANO
CYYG - Charlottetown Ar, PEI
Distance from station: E 280km
Updated: Tue, 22-Sep-2020 4:00am ADT
Partly cloudy
Partly cloudy
 Wind from NNW
Wind: NNW 7 km/h
Temperature: 3°C
Wind Chill: 1°C
Dew Point: 1°C
Humidity: 87%
Barometer: 1026.4 hPa
Clouds: Partly cloudy
Visibility: 24 km
Cloud details: Partly cloudy 7925 m
2020/09/22 07:00 CYYG 220700Z 34004KT 15SM SCT260 03/01 A3031 RMK CI4 SLP268
 
CXMI - Mcnabs Island, Nova Scotia
Distance from station: ESE 284km
Updated: Tue, 22-Sep-2020 4:00am ADT

 Wind from NE
Wind: NE 11 km/h
Temperature: 8°C
Wind Chill: 6°C
Dew Point: 5°C
Humidity: 82%
2020/09/22 07:00 CXMI 220700Z AUTO 04006KT 08/05 RMK AO1 SLP239 T00810047 58028
KAUG - Augusta, Maine, USA
Distance from station: SW 298km
Updated: Tue, 22-Sep-2020 4:53am ADT
Clear
Clear
 Wind from N
Wind: N 11 km/h
Temperature: 3°C
Wind Chill: 0°C
Dew Point: 2°C
Humidity: 93%
Barometer: 1025.7 hPa
Clouds: Clear
Visibility: 16 km
2020/09/22 07:53 KAUG 220753Z AUTO 35006KT 10SM CLR 03/02 A3029 RMK AO2 SLP258 T00330022 $
 
CWST - La Pocatiere, Quebec
Distance from station: NW 303km
Updated: Tue, 22-Sep-2020 4:00am ADT

 Wind from ESE
Wind: ESE 6 km/h
Temperature: 5°C
Dew Point: 2°C
Humidity: 81%
2020/09/22 07:00 CWST 220700Z AUTO 12003KT 05/02 RMK AO1 SLP267 T00490017 57014
CWNH - Riviere Du Loup, Quebec
Distance from station: NW 304km
Updated: Tue, 22-Sep-2020 4:00am ADT

 Wind from N
Wind: N 35 km/h
Temperature: 7°C
Wind Chill: 3°C
Dew Point: 2°C
Humidity: 71%
2020/09/22 07:00 CWNH 220700Z AUTO 00019KT 07/02 RMK AO1 SLP271 T00690019 56014
 
CWBK - Caribou Point(Ma, Nova Scotia
Distance from station: E 312km
Updated: Tue, 22-Sep-2020 4:00am ADT

 Wind from SSE
Wind: SSE 7 km/h
Temperature: 11°C
Dew Point: 7°C
Humidity: 77%
2020/09/22 07:00 CWBK 220700Z AUTO 16004KT 11/07 RMK AO1 SLP256 T01060066 58027
CWHV - Beauceville, Quebec
Distance from station: W 317km
Updated: Tue, 22-Sep-2020 4:00am ADT

 Wind from S
Wind: S 2 km/h
Temperature: 0°C
Dew Point: -1°C
Humidity: 93%
2020/09/22 07:00 CWHV 220700Z AUTO 19001KT M00/M01 RMK AO1 SLP280 T10041011 58016
 
KIWI - Wiscasset, Maine, USA
Distance from station: SW 318km
Updated: Tue, 22-Sep-2020 4:53am ADT
Clear
Clear
 Wind from calm
Wind: Calm
Temperature: 0°C
Dew Point: -1°C
Humidity: 93%
Barometer: 1025.7 hPa
Clouds: Clear
Visibility: 16 km
2020/09/22 07:53 KIWI 220753Z AUTO 00000KT 10SM CLR 00/M01 A3029 RMK AO2 SLP255 T00001011